createdAt,value
2022-09-04T00:03:58.111Z,72.50
2022-09-04T00:11:16.375Z,72.30
2022-09-04T00:13:46.085Z,72.50
2022-09-04T00:16:43.423Z,72.20
2022-09-04T00:19:39.641Z,72.50
2022-09-04T00:22:25.829Z,72.70
2022-09-04T00:25:02.725Z,72.40
2022-09-04T00:27:33.378Z,72.40
2022-09-04T00:30:08.403Z,72.50
2022-09-04T00:32:40.488Z,72.90
2022-09-04T00:35:36.965Z,72.80
2022-09-04T00:38:16.308Z,73.30
2022-09-04T00:41:24.414Z,73.20
2022-09-04T00:44:17.136Z,73.30
2022-09-04T00:46:59.788Z,73.10
2022-09-04T00:50:01.096Z,73.00
2022-09-04T00:52:53.807Z,73.30
2022-09-04T00:56:10.495Z,73.10
2022-09-04T00:58:48.066Z,73.30
2022-09-04T01:01:28.201Z,73.30
2022-09-04T01:04:14.326Z,73.50
2022-09-04T01:06:48.331Z,74.00
2022-09-04T01:09:25.263Z,73.60
2022-09-04T01:12:08.110Z,73.80
2022-09-04T01:14:56.004Z,74.10
2022-09-04T01:17:42.347Z,74.20
2022-09-04T01:20:34.652Z,74.30
2022-09-04T01:23:23.009Z,74.30
2022-09-04T01:25:56.357Z,74.70
2022-09-04T01:28:48.242Z,74.40
2022-09-04T01:31:26.976Z,75.50
2022-09-04T01:33:57.279Z,74.90
2022-09-04T01:36:43.429Z,75.00
2022-09-04T01:39:43.330Z,75.50
2022-09-04T01:42:15.047Z,75.80
2022-09-04T01:44:42.690Z,75.50
2022-09-04T01:47:25.761Z,75.60
2022-09-04T01:50:11.350Z,75.70
2022-09-04T01:52:54.831Z,76.70
2022-09-04T01:55:37.100Z,76.40
2022-09-04T01:58:18.372Z,76.70
2022-09-04T02:01:08.009Z,77.90
2022-09-04T02:03:56.403Z,78.60
2022-09-04T02:06:41.696Z,79.00
2022-09-04T02:09:22.133Z,79.70
2022-09-04T02:11:51.541Z,80.10
2022-09-04T02:15:06.980Z,80.20
2022-09-04T02:17:57.475Z,80.90
2022-09-04T02:20:35.137Z,82.10
2022-09-04T02:23:12.650Z,82.50
2022-09-04T02:25:51.452Z,82.80
2022-09-04T02:28:33.892Z,82.90
2022-09-04T02:31:04.003Z,83.10
2022-09-04T02:33:53.232Z,83.40
2022-09-04T02:36:31.777Z,83.30
2022-09-04T02:39:20.504Z,83.60
2022-09-04T02:50:57.144Z,84.90
2022-09-04T02:53:42.365Z,84.90
2022-09-04T02:56:44.053Z,84.70
2022-09-04T02:59:24.678Z,84.70
2022-09-04T03:02:04.964Z,84.80
2022-09-04T03:04:40.022Z,84.90
2022-09-04T03:07:17.803Z,85.80
2022-09-04T03:10:09.175Z,85.20
2022-09-04T03:12:55.594Z,85.70
2022-09-04T03:15:35.219Z,86.00
2022-09-04T03:18:17.153Z,86.10
2022-09-04T03:20:55.395Z,86.40
2022-09-04T03:23:39.445Z,86.60
2022-09-04T03:26:23.071Z,86.90
2022-09-04T03:29:10.600Z,86.80
2022-09-04T03:32:16.537Z,87.20
2022-09-04T03:34:53.912Z,87.10
2022-09-04T03:37:42.515Z,87.30
2022-09-04T03:40:18.653Z,87.50
2022-09-04T03:43:09.872Z,87.60
2022-09-04T03:45:52.144Z,87.60
2022-09-04T03:48:51.080Z,88.00
2022-09-04T03:51:26.103Z,88.40
2022-09-04T03:54:05.493Z,88.50
2022-09-04T03:56:50.024Z,88.30
2022-09-04T03:59:26.290Z,88.60
2022-09-04T04:01:57.687Z,88.50
2022-09-04T04:05:10.093Z,88.20
2022-09-04T04:07:40.525Z,87.90
2022-09-04T04:10:13.667Z,88.30
2022-09-04T04:13:13.383Z,88.30
2022-09-04T04:15:53.767Z,88.10
2022-09-04T04:18:42.721Z,88.50
2022-09-04T04:21:40.183Z,88.90
2022-09-04T04:24:41.802Z,89.90
2022-09-04T04:27:17.972Z,89.50
2022-09-04T04:29:52.014Z,89.30
2022-09-04T04:32:40.235Z,89.20
2022-09-04T04:35:26.408Z,89.00
2022-09-04T04:37:59.512Z,88.90
2022-09-04T04:40:45.656Z,88.80
2022-09-04T04:43:20.263Z,89.00
2022-09-04T04:46:02.820Z,89.30
2022-09-04T04:52:21.811Z,89.80
2022-09-04T04:53:13.836Z,89.20
2022-09-04T04:55:09.145Z,89.90
2022-09-04T04:57:55.231Z,89.80
2022-09-04T05:00:45.746Z,89.70
2022-09-04T05:03:16.503Z,89.90
2022-09-04T05:05:57.522Z,89.50
2022-09-04T05:08:39.029Z,89.60
2022-09-04T05:11:43.188Z,89.40
2022-09-04T05:14:35.088Z,89.00
2022-09-04T05:17:32.062Z,89.00
2022-09-04T05:20:37.781Z,88.60
2022-09-04T05:23:24.944Z,88.80
2022-09-04T05:26:14.581Z,88.50
2022-09-04T05:28:48.730Z,88.70
2022-09-04T05:31:42.312Z,88.30
2022-09-04T05:34:35.364Z,87.90
2022-09-04T05:37:43.535Z,87.90
2022-09-04T05:40:25.487Z,87.90
2022-09-04T05:43:40.394Z,88.10
2022-09-04T05:46:38.785Z,88.00
2022-09-04T05:49:32.794Z,87.50
2022-09-04T05:52:38.261Z,87.70
2022-09-04T05:55:23.134Z,87.70
2022-09-04T05:58:26.528Z,87.70
2022-09-04T06:01:33.680Z,87.70
2022-09-04T06:04:17.160Z,87.70
2022-09-04T06:07:02.902Z,87.10
2022-09-04T06:09:43.331Z,87.20
2022-09-04T06:12:49.578Z,87.10
2022-09-04T06:15:34.361Z,87.00
2022-09-04T06:18:25.559Z,86.70
2022-09-04T06:21:25.360Z,86.40
2022-09-04T06:23:55.727Z,86.10
2022-09-04T06:26:29.019Z,85.80
2022-09-04T06:29:50.882Z,85.40
2022-09-04T06:32:55.542Z,84.30
2022-09-04T06:36:00.747Z,84.10
2022-09-04T06:38:31.143Z,83.40
2022-09-04T06:41:35.928Z,82.60
2022-09-04T06:44:50.423Z,82.20
2022-09-04T06:47:35.021Z,80.90
2022-09-04T06:50:09.000Z,80.60
2022-09-04T06:52:46.826Z,79.80
2022-09-04T06:55:22.840Z,79.30
2022-09-04T06:58:21.162Z,78.60
2022-09-04T07:01:11.919Z,78.20
2022-09-04T07:04:01.100Z,77.40
2022-09-04T07:06:47.004Z,76.70
2022-09-04T07:09:34.170Z,76.20
2022-09-04T07:12:39.641Z,75.80
2022-09-04T07:18:55.108Z,73.90
2022-09-04T07:21:44.736Z,73.00
2022-09-04T07:24:43.156Z,73.30
2022-09-04T07:27:45.078Z,72.40
2022-09-04T07:30:15.764Z,71.90
2022-09-04T07:33:04.626Z,72.10
2022-09-04T07:35:54.598Z,72.00
2022-09-04T07:38:36.785Z,71.00
2022-09-04T07:41:34.561Z,70.10
2022-09-04T07:44:14.421Z,70.10
2022-09-04T07:46:57.842Z,70.00
2022-09-04T07:49:59.812Z,69.50
2022-09-04T07:53:02.566Z,68.90
2022-09-04T07:55:37.785Z,68.20
2022-09-04T07:58:23.538Z,67.40
2022-09-04T08:01:12.053Z,66.60
2022-09-04T08:03:54.641Z,66.10
2022-09-04T08:06:30.749Z,65.70
2022-09-04T08:09:07.365Z,65.20
2022-09-04T08:11:54.945Z,65.00
2022-09-04T08:14:46.258Z,64.80
2022-09-04T08:17:24.813Z,63.50
2022-09-04T08:20:33.446Z,63.50
2022-09-04T08:23:24.759Z,63.20
2022-09-04T08:26:14.622Z,62.00
2022-09-04T08:28:46.444Z,61.60
2022-09-04T08:31:36.567Z,61.00
2022-09-04T08:34:25.715Z,59.30
2022-09-04T08:37:15.577Z,59.60
2022-09-04T08:40:16.106Z,60.70
2022-09-04T08:43:25.467Z,57.40
2022-09-04T08:45:57.926Z,57.80
2022-09-04T08:49:09.520Z,58.90
2022-09-04T08:51:48.802Z,57.20
2022-09-04T08:54:20.758Z,56.30
2022-09-04T09:00:33.425Z,56.10
2022-09-04T09:03:17.910Z,55.90
2022-09-04T09:06:10.883Z,55.50
2022-09-04T09:09:04.090Z,55.60
2022-09-04T09:11:40.145Z,57.00
2022-09-04T09:14:38.740Z,57.20
2022-09-04T09:17:24.376Z,56.20
2022-09-04T09:20:29.931Z,56.30
2022-09-04T09:23:22.203Z,56.10
2022-09-04T09:26:11.900Z,55.50
2022-09-04T09:29:08.710Z,54.80
2022-09-04T09:32:01.631Z,55.60
2022-09-04T09:34:45.677Z,55.20
2022-09-04T09:37:41.974Z,55.80
2022-09-04T09:40:13.347Z,55.50
2022-09-04T09:43:00.081Z,55.50
2022-09-04T09:45:52.740Z,54.20
2022-09-04T09:48:45.008Z,52.70
2022-09-04T09:51:32.608Z,52.20
2022-09-04T09:54:40.750Z,51.30
2022-09-04T09:57:40.604Z,50.70
2022-09-04T10:00:09.175Z,51.20
2022-09-04T10:03:17.199Z,52.30
2022-09-04T10:06:09.024Z,50.80
2022-09-04T10:08:52.647Z,50.00
2022-09-04T10:12:28.654Z,50.70
2022-09-04T10:16:05.517Z,50.10
2022-09-04T10:18:41.546Z,50.50
2022-09-04T10:21:39.643Z,51.50
2022-09-04T10:24:40.417Z,50.30
2022-09-04T10:27:44.063Z,49.90
2022-09-04T10:31:00.108Z,49.30
2022-09-04T10:34:25.224Z,48.70
2022-09-04T10:37:06.881Z,48.00
2022-09-04T10:40:43.326Z,46.80
2022-09-04T10:43:35.569Z,44.00
2022-09-04T10:46:13.844Z,44.40
2022-09-04T10:48:59.643Z,43.90
2022-09-04T10:51:54.968Z,44.10
2022-09-04T10:54:48.397Z,44.00
2022-09-04T10:57:28.731Z,42.20
2022-09-04T11:00:22.283Z,42.20
2022-09-04T11:03:08.604Z,41.90
2022-09-04T11:06:12.618Z,42.20
2022-09-04T11:09:28.608Z,42.50
2022-09-04T11:12:14.755Z,42.80
2022-09-04T11:15:15.118Z,44.20
2022-09-04T11:18:04.986Z,43.30
2022-09-04T11:21:09.394Z,43.10
2022-09-04T11:23:56.116Z,42.40
2022-09-04T11:26:32.107Z,43.90
2022-09-04T11:29:28.157Z,43.10
2022-09-04T11:32:27.221Z,43.10
2022-09-04T11:35:19.891Z,43.00
2022-09-04T11:38:03.676Z,44.00
2022-09-04T11:41:05.187Z,43.80
2022-09-04T11:43:57.581Z,42.90
2022-09-04T11:47:04.358Z,42.20
2022-09-04T11:49:42.705Z,42.60
2022-09-04T11:52:15.629Z,43.70
2022-09-04T11:55:14.361Z,42.20
2022-09-04T11:58:00.889Z,42.70
2022-09-04T12:00:31.622Z,44.00
2022-09-04T12:03:18.422Z,43.00
2022-09-04T12:06:40.365Z,44.20
2022-09-04T12:09:22.814Z,42.00
2022-09-04T12:12:12.242Z,43.90
2022-09-04T12:14:43.645Z,43.40
2022-09-04T12:17:50.389Z,44.70
2022-09-04T12:20:37.186Z,43.10
2022-09-04T12:23:23.482Z,42.40
2022-09-04T12:26:18.606Z,42.30
2022-09-04T12:29:13.599Z,42.10
2022-09-04T12:32:04.941Z,42.60
2022-09-04T12:35:04.126Z,42.20
2022-09-04T12:37:55.038Z,42.20
2022-09-04T12:40:46.864Z,42.40
2022-09-04T12:43:16.787Z,41.10
2022-09-04T12:45:50.268Z,42.40
2022-09-04T12:48:36.251Z,40.20
2022-09-04T12:51:21.568Z,41.10
2022-09-04T12:54:09.551Z,40.50
2022-09-04T12:57:08.615Z,39.80
2022-09-04T12:59:42.000Z,40.20
2022-09-04T13:02:13.867Z,40.60
2022-09-04T13:04:57.898Z,41.10
2022-09-04T13:07:31.626Z,40.00
2022-09-04T13:10:35.329Z,40.70
2022-09-04T13:13:25.132Z,39.80
2022-09-04T13:16:09.216Z,39.20
2022-09-04T13:18:52.688Z,39.30
2022-09-04T13:21:44.997Z,40.10
2022-09-04T13:24:19.762Z,40.00
2022-09-04T13:27:10.316Z,40.10
2022-09-04T13:30:07.950Z,40.60
2022-09-04T13:32:35.212Z,40.00
2022-09-04T13:35:19.317Z,41.50
2022-09-04T13:37:57.116Z,40.70
2022-09-04T13:40:43.369Z,40.80
2022-09-04T13:43:55.269Z,40.30
2022-09-04T13:46:25.571Z,40.70
2022-09-04T13:48:55.771Z,42.10
2022-09-04T13:51:34.968Z,42.30
2022-09-04T13:54:11.329Z,41.80
2022-09-04T13:56:57.144Z,42.70
2022-09-04T13:59:24.268Z,42.10
2022-09-04T14:01:54.918Z,43.80
2022-09-04T14:04:29.139Z,42.30
2022-09-04T14:07:02.528Z,41.50
2022-09-04T14:09:31.058Z,42.40
2022-09-04T14:12:03.381Z,42.20
2022-09-04T14:14:41.496Z,41.90
2022-09-04T14:17:09.202Z,41.50
2022-09-04T14:20:12.392Z,41.50
2022-09-04T14:22:58.150Z,41.30
2022-09-04T14:25:34.721Z,40.50
2022-09-04T14:28:23.705Z,40.70
2022-09-04T14:31:14.213Z,41.50
2022-09-04T14:33:49.820Z,41.90
2022-09-04T14:36:35.737Z,42.60
2022-09-04T14:39:17.249Z,43.60
2022-09-04T14:42:22.957Z,43.20
2022-09-04T14:45:13.487Z,42.70
2022-09-04T14:47:55.208Z,41.70
2022-09-04T14:50:29.671Z,41.40
2022-09-04T14:52:59.590Z,41.50
2022-09-04T14:55:27.885Z,41.50
2022-09-04T14:58:00.857Z,40.70
2022-09-04T15:00:30.032Z,41.20
2022-09-04T15:03:18.213Z,42.10
2022-09-04T15:05:56.877Z,40.50
2022-09-04T15:08:56.623Z,40.00
2022-09-04T15:11:32.447Z,39.60
2022-09-04T15:14:06.047Z,39.10
2022-09-04T15:16:47.461Z,40.30
2022-09-04T15:19:26.776Z,39.20
2022-09-04T15:22:12.056Z,39.80
2022-09-04T15:24:49.893Z,39.40
2022-09-04T15:27:40.948Z,40.00
2022-09-04T15:30:29.361Z,39.70
2022-09-04T15:33:08.189Z,39.10
2022-09-04T15:35:35.742Z,39.70
2022-09-04T15:38:38.441Z,40.10
2022-09-04T15:41:35.084Z,40.10
2022-09-04T15:44:26.627Z,38.90
2022-09-04T15:47:17.356Z,39.00
2022-09-04T15:50:05.131Z,39.60
2022-09-04T15:52:47.186Z,39.80
2022-09-04T15:55:23.356Z,39.40
2022-09-04T15:57:56.458Z,39.40
2022-09-04T16:00:24.297Z,39.20
2022-09-04T16:02:59.701Z,39.80
2022-09-04T16:05:41.333Z,40.30
2022-09-04T16:08:20.650Z,40.20
2022-09-04T16:10:48.001Z,41.30
2022-09-04T16:13:27.711Z,41.70
2022-09-04T16:16:32.846Z,41.70
2022-09-04T16:19:21.044Z,42.60
2022-09-04T16:22:04.788Z,42.40
2022-09-04T16:24:45.506Z,41.80
2022-09-04T16:27:25.694Z,42.00
2022-09-04T16:30:07.253Z,42.60
2022-09-04T16:32:40.778Z,42.40
2022-09-04T16:35:21.816Z,43.10
2022-09-04T16:38:03.268Z,41.50
2022-09-04T16:40:44.468Z,41.30
2022-09-04T16:47:18.984Z,41.60
2022-09-04T16:49:50.050Z,41.20
2022-09-04T16:52:33.058Z,41.00
2022-09-04T16:55:25.221Z,40.80
2022-09-04T16:58:11.281Z,40.50
2022-09-04T17:01:12.862Z,39.60
2022-09-04T17:04:13.187Z,35.60
2022-09-04T17:29:11.494Z,42.40
2022-09-04T17:29:11.935Z,40.80
2022-09-04T17:31:16.107Z,42.70
2022-09-04T17:40:33.383Z,43.00
2022-09-04T17:40:37.720Z,43.00
2022-09-04T17:40:49.728Z,43.40
2022-09-04T17:43:34.702Z,44.10
2022-09-04T17:46:15.968Z,44.00
2022-09-04T17:48:44.305Z,44.40
2022-09-04T17:51:16.836Z,44.60
2022-09-04T17:53:47.982Z,45.30
2022-09-04T17:56:20.680Z,45.70
2022-09-04T17:58:51.047Z,46.80
2022-09-04T18:01:53.193Z,46.50
2022-09-04T18:04:47.345Z,47.70
2022-09-04T18:08:07.391Z,47.50
2022-09-04T18:10:52.032Z,47.90
2022-09-04T18:13:37.569Z,48.90
2022-09-04T18:16:08.820Z,48.50
2022-09-04T18:19:14.898Z,48.80
2022-09-04T18:21:46.171Z,49.00
2022-09-04T18:24:17.643Z,49.20
2022-09-04T18:26:52.868Z,49.90
2022-09-04T18:30:11.854Z,49.40
2022-09-04T18:37:18.976Z,49.50
2022-09-04T18:37:25.849Z,49.90
2022-09-04T18:38:16.298Z,50.40
2022-09-04T18:43:04.023Z,50.40
2022-09-04T18:50:44.732Z,50.50
2022-09-04T18:50:45.734Z,50.40
2022-09-04T18:50:52.397Z,50.50
2022-09-04T18:52:17.367Z,50.40
2022-09-04T18:54:46.647Z,51.00
2022-09-04T18:57:25.894Z,50.30
2022-09-04T19:00:08.376Z,51.10
2022-09-04T19:03:07.814Z,51.50
2022-09-04T19:05:44.973Z,51.80
2022-09-04T19:08:15.681Z,51.50
2022-09-04T19:10:48.494Z,52.10
2022-09-04T19:13:30.782Z,51.70
2022-09-04T19:16:12.052Z,51.90
2022-09-04T19:18:43.766Z,51.70
2022-09-04T19:21:14.875Z,51.30
2022-09-04T19:24:11.480Z,51.30
2022-09-04T19:26:57.270Z,51.10
2022-09-04T19:29:38.375Z,51.30
2022-09-04T19:32:07.096Z,51.10
2022-09-04T19:35:02.544Z,51.40
2022-09-04T19:42:52.312Z,52.00
2022-09-04T19:46:02.280Z,52.50
2022-09-04T19:46:13.430Z,52.30
2022-09-04T19:47:29.107Z,53.40
2022-09-04T19:53:18.833Z,53.40
2022-09-04T19:53:34.442Z,53.60
2022-09-04T19:56:09.492Z,54.20
2022-09-04T19:58:50.289Z,53.80
2022-09-04T20:01:20.600Z,53.80
2022-09-04T20:03:57.884Z,53.70
2022-09-04T20:06:40.341Z,53.50
2022-09-04T20:09:08.868Z,53.90
2022-09-04T20:11:49.235Z,53.70
2022-09-04T20:14:26.507Z,53.70
2022-09-04T20:17:12.017Z,53.60
2022-09-04T20:19:48.822Z,54.00
2022-09-04T20:22:37.713Z,53.80
2022-09-04T20:25:08.001Z,53.80
2022-09-04T20:27:43.837Z,53.60
2022-09-04T20:30:24.912Z,54.00
2022-09-04T20:33:11.665Z,53.70
2022-09-04T20:35:42.492Z,53.70
2022-09-04T20:38:35.299Z,53.40
2022-09-04T20:41:25.681Z,53.90
2022-09-04T20:44:31.901Z,54.50
2022-09-04T20:52:49.483Z,53.90
2022-09-04T20:52:49.858Z,54.40
2022-09-04T20:53:52.140Z,54.10
2022-09-04T20:58:52.383Z,54.10
2022-09-04T21:03:13.349Z,54.10
2022-09-04T21:03:17.389Z,54.00
2022-09-04T21:05:40.383Z,53.90
2022-09-04T21:08:22.009Z,54.10
2022-09-04T21:11:40.408Z,54.30
2022-09-04T21:14:12.128Z,54.30
2022-09-04T21:17:33.352Z,54.30
2022-09-04T21:20:13.000Z,53.80
2022-09-04T21:22:55.552Z,53.70
2022-09-04T21:25:32.133Z,53.40
2022-09-04T21:28:36.527Z,53.60
2022-09-04T21:31:22.631Z,53.40
2022-09-04T21:33:52.800Z,54.10
2022-09-04T21:36:42.400Z,53.50
2022-09-04T21:39:31.725Z,53.30
2022-09-04T21:42:16.874Z,53.30
2022-09-04T21:44:44.840Z,53.00
2022-09-04T21:47:37.972Z,53.20
2022-09-04T21:50:20.352Z,53.00
2022-09-04T21:53:12.634Z,52.50
2022-09-04T22:00:08.016Z,52.70
2022-09-04T22:02:26.697Z,52.80
2022-09-04T22:03:03.614Z,53.50
2022-09-04T22:06:03.816Z,53.00
2022-09-04T22:13:31.928Z,53.70
2022-09-04T22:13:32.763Z,53.20
2022-09-04T22:14:59.753Z,54.10
2022-09-04T22:17:37.717Z,53.90
2022-09-04T22:20:43.018Z,54.00
2022-09-04T22:23:36.453Z,54.10
2022-09-04T22:26:24.100Z,53.70
2022-09-04T22:29:26.587Z,53.90
2022-09-04T22:32:36.591Z,54.50
2022-09-04T22:36:19.053Z,54.00
2022-09-04T22:39:02.178Z,54.40
2022-09-04T22:41:43.868Z,53.90
2022-09-04T22:44:40.302Z,54.40
2022-09-04T22:47:26.432Z,54.10
2022-09-04T22:50:48.956Z,54.10
2022-09-04T22:54:13.552Z,54.10
2022-09-04T22:57:04.636Z,54.40
2022-09-04T22:59:40.843Z,54.40
2022-09-04T23:05:48.113Z,53.90
2022-09-04T23:13:46.603Z,54.00
2022-09-04T23:13:49.257Z,54.00
2022-09-04T23:15:17.290Z,53.70
2022-09-04T23:18:54.414Z,53.60
2022-09-04T23:26:31.469Z,54.00
2022-09-04T23:26:48.843Z,53.80
2022-09-04T23:27:02.146Z,54.30
2022-09-04T23:29:46.123Z,53.50
2022-09-04T23:32:28.437Z,53.40
2022-09-04T23:35:31.052Z,53.60
2022-09-04T23:38:11.500Z,53.60
2022-09-04T23:40:51.364Z,53.30
2022-09-04T23:43:33.873Z,53.30
2022-09-04T23:46:19.397Z,53.20
2022-09-04T23:49:06.996Z,53.80
2022-09-04T23:51:40.843Z,53.10
2022-09-04T23:54:26.186Z,53.40
2022-09-04T23:57:09.755Z,53.30
